createdAt,value
2023-04-25T03:32:09.856Z,94185.19
2023-04-25T03:34:37.898Z,94219.94
2023-04-25T03:37:04.872Z,94186.78
2023-04-25T03:39:37.890Z,94171.53
2023-04-25T03:42:09.575Z,94181.56
2023-04-25T03:44:36.886Z,94178.69
2023-04-25T03:47:05.109Z,94170.56
2023-04-25T03:52:13.014Z,94167.69
2023-04-25T03:54:41.209Z,94156.13
2023-04-25T03:57:15.478Z,94157.41
2023-04-25T03:59:44.459Z,94156.63
2023-04-25T04:02:19.059Z,94155.06
2023-04-25T04:04:54.491Z,94156.59
2023-04-25T04:07:22.137Z,94164.22
2023-04-25T04:09:53.106Z,94162.91
2023-04-25T04:12:29.575Z,94176.84
2023-04-25T04:14:56.886Z,94177.13
2023-04-25T04:17:27.741Z,94192.13
2023-04-25T04:19:55.300Z,94181.09
2023-04-25T04:22:24.984Z,94174.53
2023-04-25T04:24:55.710Z,94176.88
2023-04-25T04:27:41.887Z,94167.91
2023-04-25T04:30:38.030Z,94177.09
2023-04-25T04:33:10.011Z,94182.09
2023-04-25T04:35:37.309Z,94189.22
2023-04-25T04:38:04.630Z,94186.34
2023-04-25T04:40:34.768Z,94182.13
2023-04-25T04:43:18.510Z,94191.34
2023-04-25T04:46:11.589Z,94192.13
2023-04-25T04:49:09.097Z,94202.97
2023-04-25T04:51:47.927Z,94208.22
2023-04-25T04:54:53.220Z,94218.75
2023-04-25T04:57:43.812Z,94209.00
2023-04-25T05:00:34.422Z,94205.56
2023-04-25T05:03:33.407Z,94199.19
2023-04-25T05:06:30.241Z,94197.06
2023-04-25T05:09:29.153Z,94183.38
2023-04-25T05:12:04.971Z,94186.22
2023-04-25T05:14:40.243Z,94180.66
2023-04-25T05:17:30.611Z,94176.69
2023-04-25T05:20:12.929Z,94174.56
2023-04-25T05:23:01.424Z,94175.34
2023-04-25T05:25:47.902Z,94171.94
2023-04-25T05:28:35.503Z,94168.28
2023-04-25T05:31:16.136Z,94166.44
2023-04-25T05:33:55.350Z,94170.97
2023-04-25T05:36:23.355Z,94184.38
2023-04-25T05:38:52.130Z,94183.13
2023-04-25T05:41:21.668Z,94176.31
2023-04-25T05:44:11.500Z,94179.75
2023-04-25T05:46:46.862Z,94177.72
2023-04-25T05:49:51.946Z,94177.72
2023-04-25T05:52:42.270Z,94177.53
2023-04-25T05:55:20.094Z,94179.94
2023-04-25T05:57:47.092Z,94178.69
2023-04-25T06:00:17.266Z,94178.72
2023-04-25T06:02:48.901Z,94177.97
2023-04-25T06:05:16.251Z,94172.19
2023-04-25T06:07:43.558Z,94170.38
2023-04-25T06:10:10.821Z,94164.81
2023-04-25T06:12:40.031Z,94171.19
2023-04-25T06:15:20.127Z,94173.03
2023-04-25T06:17:55.235Z,94163.53
2023-04-25T06:20:25.203Z,94162.75
2023-04-25T06:22:53.841Z,94163.53
2023-04-25T06:25:25.752Z,94162.47
2023-04-25T06:27:56.478Z,94166.19
2023-04-25T06:30:26.876Z,94165.13
2023-04-25T06:32:58.704Z,94162.75
2023-04-25T06:35:25.743Z,94155.13
2023-04-25T06:37:53.502Z,94154.84
2023-04-25T06:40:22.847Z,94155.63
2023-04-25T06:42:49.689Z,94149.53
2023-04-25T06:45:36.465Z,94155.03
2023-04-25T06:48:04.318Z,94136.25
2023-04-25T06:50:31.273Z,94142.78
2023-04-25T06:52:58.424Z,94139.28
2023-04-25T06:55:26.685Z,94142.69
2023-04-25T06:58:06.296Z,94143.47
2023-04-25T07:00:54.433Z,94140.56
2023-04-25T07:03:23.901Z,94145.63
2023-04-25T07:05:54.164Z,94146.19
2023-04-25T07:08:24.044Z,94143.31
2023-04-25T07:10:51.203Z,94139.38
2023-04-25T07:13:17.972Z,94133.09
2023-04-25T07:15:45.286Z,94142.34
2023-04-25T07:18:17.074Z,94141.81
2023-04-25T07:20:43.858Z,94141.03
2023-04-25T07:23:12.064Z,94151.06
2023-04-25T07:25:39.528Z,94151.34
2023-04-25T07:28:06.776Z,94154.50
2023-04-25T07:30:33.500Z,94151.09
2023-04-25T07:33:04.159Z,94146.31
2023-04-25T07:35:32.700Z,94144.19
2023-04-25T07:38:00.220Z,94140.66
2023-04-25T07:40:27.025Z,94139.50
2023-04-25T07:42:58.651Z,94133.59
2023-04-25T07:45:44.407Z,94120.22
2023-04-25T07:48:11.561Z,94121.22
2023-04-25T07:50:41.267Z,94124.31
2023-04-25T07:53:07.927Z,94122.44
2023-04-25T07:55:42.736Z,94128.59
2023-04-25T07:58:16.382Z,94127.31
2023-04-25T08:00:45.312Z,94119.53
2023-04-25T08:03:35.240Z,94119.88
2023-04-25T08:06:08.205Z,94120.88
2023-04-25T08:08:43.107Z,94123.84
2023-04-25T08:11:13.269Z,94126.22
2023-04-25T08:13:40.884Z,94124.19
2023-04-25T08:16:08.067Z,94121.56
2023-04-25T08:18:35.515Z,94122.41
2023-04-25T08:21:02.474Z,94123.78
2023-04-25T08:23:31.162Z,94122.22
2023-04-25T08:26:23.945Z,94123.75
2023-04-25T08:28:51.500Z,94124.03
2023-04-25T08:31:18.331Z,94135.44
2023-04-25T08:33:54.118Z,94134.94
2023-04-25T08:36:38.712Z,94132.38
2023-04-25T08:39:19.336Z,94133.97
2023-04-25T08:42:08.158Z,94137.97
2023-04-25T08:44:35.924Z,94160.44
2023-04-25T08:47:06.059Z,94163.91
2023-04-25T08:49:39.699Z,94158.94
2023-04-25T08:52:07.407Z,94154.47
2023-04-25T08:54:38.450Z,94152.38
2023-04-25T08:57:07.854Z,94158.19
2023-04-25T08:59:37.307Z,94159.47
2023-04-25T09:02:06.753Z,94154.91
2023-04-25T09:04:33.710Z,94155.81
2023-04-25T09:07:00.527Z,94146.22
2023-04-25T09:09:28.313Z,94150.00
2023-04-25T09:11:57.132Z,94139.53
2023-04-25T09:14:27.144Z,94150.00
2023-04-25T09:17:18.901Z,94153.47
2023-04-25T09:19:54.222Z,94155.03
2023-04-25T09:22:26.227Z,94158.81
2023-04-25T09:24:53.448Z,94165.50
2023-04-25T09:27:24.509Z,94160.00
2023-04-25T09:29:59.330Z,94168.31
2023-04-25T09:32:28.645Z,94161.19
2023-04-25T09:34:58.096Z,94168.06
2023-04-25T09:37:27.912Z,94167.75
2023-04-25T09:40:21.119Z,94170.28
2023-04-25T09:42:57.862Z,94171.06
2023-04-25T09:45:25.454Z,94170.50
2023-04-25T09:47:56.695Z,94170.41
2023-04-25T09:50:26.828Z,94172.97
2023-04-25T09:53:08.245Z,94179.75
2023-04-25T09:55:58.854Z,94174.88
2023-04-25T09:58:32.905Z,94181.75
2023-04-25T10:01:04.019Z,94184.16
2023-04-25T10:03:43.971Z,94180.16
2023-04-25T10:06:30.056Z,94184.19
2023-04-25T10:08:57.111Z,94184.00
2023-04-25T10:11:25.473Z,94187.63
2023-04-25T10:13:54.627Z,94185.44
2023-04-25T10:16:22.276Z,94188.41
2023-04-25T10:18:51.522Z,94206.25
2023-04-25T10:21:19.182Z,94215.72
2023-04-25T10:23:47.821Z,94233.38
2023-04-25T10:32:12.556Z,94277.47
2023-04-25T10:40:48.926Z,94297.25
2023-04-25T11:07:15.408Z,94326.09
2023-04-25T11:09:42.486Z,94325.00
2023-04-25T11:26:24.177Z,94292.81
2023-04-25T11:28:51.365Z,94286.19
2023-04-25T11:45:17.634Z,94262.88
2023-04-25T11:50:54.871Z,94264.72
2023-04-25T12:12:46.483Z,94253.88
2023-04-25T12:15:20.185Z,94267.44
2023-04-25T12:20:27.830Z,94285.84
2023-04-25T12:22:54.490Z,94302.53
2023-04-25T12:25:46.384Z,94297.28
2023-04-25T12:28:15.412Z,94310.53
2023-04-25T12:33:38.866Z,94306.25
2023-04-25T12:41:32.194Z,94292.66
2023-04-25T12:47:01.220Z,94304.91
2023-04-25T12:49:27.981Z,94314.72
2023-04-25T12:51:55.080Z,94318.44
2023-04-25T12:59:46.161Z,94314.97
2023-04-25T13:02:14.415Z,94319.47
2023-04-25T13:04:41.293Z,94326.59
2023-04-25T13:07:07.949Z,94321.34
2023-04-25T13:09:34.950Z,94331.88
2023-04-25T13:12:03.093Z,94333.22
2023-04-25T13:14:30.029Z,94339.28
2023-04-25T13:16:56.994Z,94342.97
2023-04-25T13:19:27.344Z,94340.88
2023-04-25T13:24:35.091Z,94345.88
2023-04-25T13:27:10.346Z,94360.13
2023-04-25T13:29:39.060Z,94371.22
2023-04-25T13:32:06.367Z,94366.19
2023-04-25T13:34:35.571Z,94370.41
2023-04-25T13:37:02.334Z,94372.28
2023-04-25T13:39:29.271Z,94368.84
2023-04-25T13:41:56.035Z,94370.66
2023-04-25T13:44:22.922Z,94375.94
2023-04-25T13:46:49.914Z,94383.84
2023-04-25T13:49:17.393Z,94381.22
2023-04-25T13:51:46.010Z,94389.63
2023-04-25T13:54:12.621Z,94387.75
2023-04-25T13:56:41.502Z,94392.00
2023-04-25T13:59:08.378Z,94397.53
2023-04-25T14:01:38.305Z,94394.38
2023-04-25T14:04:13.043Z,94400.75
2023-04-25T14:06:43.500Z,94398.41
2023-04-25T14:09:26.750Z,94393.94
2023-04-25T14:11:57.068Z,94397.91
2023-04-25T14:14:28.215Z,94397.38
2023-04-25T14:16:55.471Z,94390.75
2023-04-25T14:19:24.165Z,94397.91
2023-04-25T14:21:50.708Z,94390.75
2023-04-25T14:24:17.622Z,94390.47
2023-04-25T14:26:44.521Z,94380.72
2023-04-25T14:29:15.432Z,94384.94
2023-04-25T14:31:42.242Z,94387.56
2023-04-25T14:34:09.246Z,94391.22
2023-04-25T14:36:36.517Z,94387.53
2023-04-25T14:39:04.901Z,94394.38
2023-04-25T14:41:31.774Z,94394.63
2023-04-25T14:43:58.451Z,94399.66
2023-04-25T14:46:27.027Z,94399.16
2023-04-25T14:48:53.901Z,94392.56
2023-04-25T14:51:20.715Z,94397.06
2023-04-25T14:53:47.769Z,94401.56
2023-04-25T14:56:14.632Z,94392.34
2023-04-25T14:58:41.749Z,94403.69
2023-04-25T15:01:09.228Z,94397.38
2023-04-25T15:03:37.927Z,94403.97
2023-04-25T15:06:05.371Z,94416.13
2023-04-25T15:08:32.268Z,94406.63
2023-04-25T15:10:59.414Z,94424.03
2023-04-25T15:13:26.838Z,94414.81
2023-04-25T15:15:55.004Z,94424.31
2023-04-25T15:18:25.981Z,94433.53
2023-04-25T15:20:54.970Z,94438.78
2023-04-25T15:23:22.338Z,94435.13
2023-04-25T15:25:51.032Z,94445.38
2023-04-25T15:28:17.906Z,94445.66
2023-04-25T15:30:44.407Z,94449.06
2023-04-25T15:33:18.541Z,94453.78
2023-04-25T15:35:53.636Z,94448.78
2023-04-25T16:25:11.014Z,94514.97
2023-04-25T16:27:41.565Z,94533.66
2023-04-25T16:30:13.064Z,94520.22
2023-04-25T16:32:41.724Z,94525.88
2023-04-25T16:37:52.938Z,94529.47
2023-04-25T16:43:09.317Z,94541.34
2023-04-25T16:45:38.121Z,94532.13
2023-04-25T16:50:47.122Z,94541.59
2023-04-25T16:58:50.235Z,94542.28
2023-04-25T17:12:50.971Z,94548.81
2023-04-25T17:51:42.479Z,94573.88
2023-04-25T19:45:56.553Z,94686.69
2023-04-25T19:48:27.602Z,94679.28
2023-04-25T19:59:12.975Z,94689.03
2023-04-25T21:44:48.757Z,94691.53
2023-04-25T23:15:28.095Z,94730.63
2023-04-25T23:50:27.951Z,94737.25
